Time;durP1;ratioP1;P1;durP2;ratioP2;P2;SDS_P1;SDS_P2;PMS_P1;PMS_P2;Temp;Humidity;BMP_temperature;BMP_pressure;BME280_temperature;BME280_humidity;BME280_pressure;Samples;Min_cycle;Max_cycle;Signal;HPM_P1;HPM_P2
2021/12/02 00:02:14;;;;;;;2.97;0.30;;;;;;;5.49;86.25;97145.38;4991066;28;20221;-51
2021/12/02 00:04:43;;;;;;;2.37;0.60;;;;;;;5.47;85.86;97143.75;4990983;28;20189;-54
2021/12/02 00:07:11;;;;;;;0.40;0.30;;;;;;;5.49;84.62;97125.50;4990488;28;20209;-50
2021/12/02 00:09:39;;;;;;;0.47;0.40;;;;;;;5.45;85.70;97130.16;4990488;28;20181;-50
2021/12/02 00:12:07;;;;;;;1.13;0.23;;;;;;;5.48;85.38;97131.63;4980022;28;20211;-54
2021/12/02 00:14:41;;;;;;;0.50;0.30;;;;;;;5.44;85.94;97120.78;4991460;28;20195;-50
2021/12/02 00:17:14;;;;;;;1.13;0.40;;;;;;;5.47;84.42;97120.47;4989747;28;20677;-51
2021/12/02 00:22:28;;;;;;;2.73;0.40;;;;;;;5.45;84.84;97113.84;4990015;28;20198;-55
2021/12/02 00:24:59;;;;;;;1.93;0.50;;;;;;;5.44;85.46;97115.59;4991032;28;20561;-51
2021/12/02 00:27:28;;;;;;;2.60;0.50;;;;;;;5.46;84.79;97120.63;4982250;28;20217;-50
2021/12/02 00:29:58;;;;;;;1.17;0.30;;;;;;;5.50;83.54;97103.00;4984608;28;20217;-52
2021/12/02 00:32:28;;;;;;;1.93;0.40;;;;;;;5.43;85.84;97113.97;4989366;28;20179;-52
2021/12/02 00:34:56;;;;;;;1.10;0.40;;;;;;;5.44;86.11;97099.28;4991086;28;20241;-51
2021/12/02 00:37:24;;;;;;;4.70;0.60;;;;;;;5.44;85.06;97107.03;4990611;28;20550;-50
2021/12/02 00:39:53;;;;;;;1.13;0.43;;;;;;;5.35;85.71;97111.34;4990169;28;20240;-52
2021/12/02 00:42:20;;;;;;;3.27;0.50;;;;;;;5.32;87.51;97122.81;4989581;28;20244;-50
2021/12/02 00:44:50;;;;;;;2.00;0.40;;;;;;;5.30;87.80;97124.75;4983219;28;20208;-50
2021/12/02 00:47:20;;;;;;;1.53;0.40;;;;;;;5.28;89.19;97123.31;4993227;28;20193;-50
2021/12/02 00:49:48;;;;;;;1.30;0.50;;;;;;;5.27;89.06;97125.06;4991823;28;20727;-53
2021/12/02 00:52:16;;;;;;;1.13;0.50;;;;;;;5.20;89.71;97137.00;4994216;28;20195;-50
2021/12/02 00:54:45;;;;;;;0.93;0.47;;;;;;;5.17;90.14;97138.13;4994224;28;20276;-51
2021/12/02 00:57:13;;;;;;;0.87;0.50;;;;;;;5.11;90.62;97143.09;4994221;28;20196;-51
2021/12/02 00:59:43;;;;;;;0.50;0.30;;;;;;;4.94;91.36;97142.19;4989283;28;20182;-53
2021/12/02 01:02:11;;;;;;;1.93;0.77;;;;;;;4.87;92.03;97147.13;4990152;28;20705;-51
2021/12/02 01:04:39;;;;;;;0.70;0.60;;;;;;;4.88;92.48;97148.75;4995291;28;20197;-52
2021/12/02 01:07:07;;;;;;;0.93;0.57;;;;;;;4.81;92.02;97153.72;4994021;28;20185;-51
2021/12/02 01:09:35;;;;;;;2.43;0.70;;;;;;;4.76;92.57;97155.16;5024948;23;20219;-54
2021/12/02 01:12:02;;;;;;;2.23;0.40;;;;;;;4.72;91.85;97159.78;5011468;28;20645;-53
2021/12/02 01:14:29;;;;;;;2.43;0.50;;;;;;;4.76;90.97;97155.16;5011416;28;20218;-52
2021/12/02 01:16:56;;;;;;;1.13;0.40;;;;;;;4.72;89.82;97175.31;5002869;28;20189;-55
2021/12/02 01:19:23;;;;;;;1.27;0.40;;;;;;;4.81;89.99;97171.00;5018023;28;20240;-54
2021/12/02 01:21:54;;;;;;;2.77;0.47;;;;;;;4.75;89.41;97179.38;5017088;28;20198;-54
2021/12/02 01:24:21;;;;;;;1.00;0.43;;;;;;;4.70;88.81;97147.03;5014063;28;20176;-55
2021/12/02 01:26:51;;;;;;;3.10;0.90;;;;;;;4.72;89.76;97164.97;5013816;28;20235;-54
2021/12/02 01:29:20;;;;;;;0.80;0.40;;;;;;;4.79;86.90;97160.00;5011540;28;20229;-54
2021/12/02 01:31:50;;;;;;;2.90;0.30;;;;;;;4.77;88.78;97170.50;5011605;28;20187;-55
2021/12/02 01:34:22;;;;;;;0.60;0.40;;;;;;;4.76;89.46;97168.88;5004468;28;20190;-55
2021/12/02 01:36:53;;;;;;;2.17;0.70;;;;;;;4.78;87.31;97169.53;5016099;28;20192;-55
2021/12/02 01:39:20;;;;;;;1.20;0.50;;;;;;;4.78;87.37;97166.94;5013333;28;20201;-51
2021/12/02 01:41:49;;;;;;;0.50;0.30;;;;;;;4.73;88.49;97151.06;5012680;28;20223;-55
2021/12/02 01:44:19;;;;;;;2.00;0.60;;;;;;;4.75;88.65;97153.53;5008278;28;20189;-55
2021/12/02 01:46:47;;;;;;;0.67;0.30;;;;;;;4.76;86.37;97168.06;5013421;28;20644;-52
2021/12/02 01:49:15;;;;;;;3.00;0.30;;;;;;;4.81;84.88;97164.06;5006787;28;20216;-55
2021/12/02 01:51:45;;;;;;;0.30;0.10;;;;;;;4.81;84.30;97174.41;5014393;28;20185;-51
2021/12/02 01:54:16;;;;;;;0.40;0.20;;;;;;;4.78;84.44;97164.38;5014742;28;20616;-55
2021/12/02 01:56:46;;;;;;;1.50;0.40;;;;;;;4.76;87.34;97162.91;5013170;28;20675;-54
2021/12/02 01:59:16;;;;;;;0.77;0.20;;;;;;;4.74;87.45;97168.22;5012606;28;20304;-55
2021/12/02 02:01:44;;;;;;;1.90;0.30;;;;;;;4.73;85.43;97167.41;5012907;28;20189;-55
2021/12/02 02:04:12;;;;;;;0.27;0.27;;;;;;;4.75;86.39;97171.63;5012888;28;20217;-53
2021/12/02 02:06:41;;;;;;;1.67;0.40;;;;;;;4.75;85.88;97162.09;5003259;28;20203;-53
2021/12/02 02:09:09;;;;;;;0.40;0.23;;;;;;;4.82;86.35;97173.44;5021997;28;20208;-51
2021/12/02 02:11:37;;;;;;;3.10;0.43;;;;;;;4.82;85.54;97164.88;5024125;28;20553;-54
2021/12/02 02:14:07;;;;;;;0.70;0.30;;;;;;;4.79;86.82;97158.22;5033155;28;20195;-55
2021/12/02 02:16:34;;;;;;;1.03;0.47;;;;;;;4.70;88.64;97164.31;5033393;28;20524;-55
2021/12/02 02:19:01;;;;;;;1.43;0.50;;;;;;;4.78;85.49;97161.78;5033411;28;20234;-53
2021/12/02 02:21:31;;;;;;;6.00;0.70;;;;;;;4.80;85.19;97159.84;5020421;28;20674;-54
2021/12/02 02:23:58;;;;;;;2.20;0.57;;;;;;;4.84;85.37;97153.44;5021002;28;20545;-52
2021/12/02 02:26:28;;;;;;;1.83;0.50;;;;;;;4.78;86.45;97154.03;5024824;28;20455;-54
2021/12/02 02:28:55;;;;;;;2.37;0.50;;;;;;;4.72;87.60;97155.44;5032985;28;20299;-55
2021/12/02 02:31:22;;;;;;;1.60;0.50;;;;;;;4.74;86.98;97137.19;5032408;28;20188;-56
2021/12/02 02:33:50;;;;;;;3.57;0.73;;;;;;;4.71;87.18;97133.16;5032998;28;20192;-51
2021/12/02 02:36:20;;;;;;;1.97;0.70;;;;;;;4.70;88.16;97135.88;5021213;28;20281;-53
2021/12/02 02:38:55;;;;;;;2.07;0.70;;;;;;;4.72;88.80;97139.13;5020138;28;20180;-51
2021/12/02 02:41:23;;;;;;;0.93;0.50;;;;;;;4.73;89.10;97131.22;5023910;28;20195;-54
2021/12/02 02:43:53;;;;;;;2.47;0.77;;;;;;;4.77;89.49;97138.69;5013273;28;20584;-53
2021/12/02 02:46:24;;;;;;;3.07;1.17;;;;;;;4.74;90.24;97139.78;5032880;28;20191;-52
2021/12/02 02:48:52;;;;;;;1.70;0.90;;;;;;;4.78;90.48;97138.50;5032578;28;20204;-51
2021/12/02 02:51:19;;;;;;;2.07;1.00;;;;;;;4.78;90.43;97119.59;5020222;28;20189;-52
2021/12/02 02:53:52;;;;;;;3.93;1.00;;;;;;;4.81;89.75;97122.69;5019950;28;20222;-53
2021/12/02 02:56:20;;;;;;;3.67;1.00;;;;;;;4.85;89.60;97125.78;5007180;28;20214;-50
2021/12/02 03:01:42;;;;;;;4.50;1.20;;;;;;;4.91;89.56;97124.38;5028498;28;20298;-51
2021/12/02 03:04:22;;;;;;;2.23;1.10;;;;;;;4.89;89.17;97129.69;5032688;28;20188;-51
2021/12/02 03:06:53;;;;;;;2.30;1.00;;;;;;;4.95;87.95;97136.84;5018041;28;20694;-55
2021/12/02 03:09:36;;;;;;;5.50;1.30;;;;;;;4.93;88.39;97135.38;5022478;28;20215;-53
2021/12/02 03:12:08;;;;;;;6.47;1.10;;;;;;;4.92;89.17;97128.59;5026942;28;20188;-53
2021/12/02 03:14:48;;;;;;;3.63;1.27;;;;;;;4.91;89.85;97132.94;5032342;28;20180;-53
2021/12/02 03:17:14;;;;;;;4.60;1.20;;;;;;;4.87;90.37;97131.63;5032193;28;20207;-54
2021/12/02 03:19:42;;;;;;;1.20;0.87;;;;;;;4.86;91.08;97145.50;5031483;28;20192;-51
2021/12/02 03:22:10;;;;;;;4.17;1.50;;;;;;;4.84;90.56;97150.00;5015363;28;20192;-55
2021/12/02 03:24:38;;;;;;;2.97;1.30;;;;;;;4.85;92.15;97146.47;5022659;28;20205;-53
2021/12/02 03:27:06;;;;;;;2.17;0.93;;;;;;;4.84;91.37;97148.25;5027083;28;20231;-54
2021/12/02 03:29:33;;;;;;;1.10;0.97;;;;;;;4.90;89.48;97151.19;5031451;28;20223;-53
2021/12/02 03:32:00;;;;;;;3.87;1.30;;;;;;;4.69;91.62;97148.00;5031936;28;20509;-52
2021/12/02 03:34:27;;;;;;;3.90;0.93;;;;;;;4.64;92.40;97157.16;5032059;28;20242;-52
2021/12/02 03:36:54;;;;;;;4.87;1.13;;;;;;;4.61;91.69;97154.84;5017494;28;20193;-53
2021/12/02 03:39:21;;;;;;;4.80;1.10;;;;;;;4.60;91.97;97174.72;5022498;28;20204;-51
2021/12/02 03:41:49;;;;;;;2.83;1.10;;;;;;;4.56;91.03;97176.00;5023748;28;20583;-55
2021/12/02 03:44:16;;;;;;;2.10;0.97;;;;;;;4.46;93.05;97188.16;5030212;28;20188;-53
2021/12/02 03:46:43;;;;;;;1.90;0.83;;;;;;;4.20;92.29;97189.72;5032001;28;20181;-53
2021/12/02 03:49:10;;;;;;;1.00;0.70;;;;;;;3.97;94.39;97177.22;5013872;28;20336;-54
2021/12/02 03:51:37;;;;;;;1.93;0.80;;;;;;;3.92;95.23;97171.66;5005230;28;20197;-51
2021/12/02 03:54:04;;;;;;;1.47;0.60;;;;;;;3.90;95.03;97178.75;5020747;28;20192;-51
2021/12/02 03:56:31;;;;;;;2.43;0.60;;;;;;;3.83;95.55;97168.16;5023445;28;20184;-51
2021/12/02 03:59:00;;;;;;;3.23;0.97;;;;;;;3.81;97.58;97170.06;5031634;28;20176;-54
2021/12/02 04:01:27;;;;;;;3.37;1.00;;;;;;;3.77;96.29;97160.19;5030949;28;20184;-52
2021/12/02 04:03:54;;;;;;;2.97;1.13;;;;;;;3.75;96.17;97159.53;5031749;28;20184;-52
2021/12/02 04:06:22;;;;;;;4.60;2.00;;;;;;;3.76;96.88;97169.69;5020996;28;20226;-53
2021/12/02 04:08:52;;;;;;;2.17;0.93;;;;;;;3.77;96.63;97155.03;5019871;28;20215;-52
2021/12/02 04:11:27;;;;;;;2.60;1.00;;;;;;;3.74;97.29;97156.13;5022694;28;20194;-53
2021/12/02 04:14:04;;;;;;;3.77;1.00;;;;;;;3.76;97.35;97149.03;5031687;28;20192;-54
2021/12/02 04:16:36;;;;;;;4.07;1.07;;;;;;;3.76;97.00;97141.31;5031796;28;20195;-53
2021/12/02 04:19:03;;;;;;;1.60;0.63;;;;;;;3.76;97.36;97149.03;5032775;28;20192;-52
2021/12/02 04:21:30;;;;;;;5.13;0.60;;;;;;;3.80;98.16;97141.84;5024282;28;20186;-50
2021/12/02 04:23:57;;;;;;;2.97;0.80;;;;;;;3.82;96.49;97158.00;5023811;28;20270;-52
2021/12/02 04:26:24;;;;;;;4.33;0.77;;;;;;;3.87;97.26;97152.38;5027050;28;20610;-55
2021/12/02 04:28:51;;;;;;;3.67;0.50;;;;;;;3.83;96.59;97154.47;5035428;28;20208;-52
2021/12/02 04:31:18;;;;;;;2.47;0.60;;;;;;;3.80;96.32;97140.06;5034493;28;20184;-51
2021/12/02 04:33:46;;;;;;;3.63;0.70;;;;;;;3.84;95.63;97153.50;5035256;28;20191;-52
2021/12/02 04:36:12;;;;;;;0.90;0.60;;;;;;;3.79;95.05;97146.19;5025827;28;20208;-51
2021/12/02 04:38:39;;;;;;;2.20;0.60;;;;;;;3.82;97.35;97150.25;5026533;28;20184;-54
2021/12/02 04:41:06;;;;;;;1.30;0.70;;;;;;;3.81;95.48;97146.03;5026041;28;20254;-51
2021/12/02 04:43:33;;;;;;;2.40;1.00;;;;;;;3.76;95.29;97151.63;5033434;28;20550;-55
2021/12/02 04:46:00;;;;;;;2.43;0.50;;;;;;;3.76;96.08;97148.25;5017399;28;20228;-51
2021/12/02 04:48:27;;;;;;;1.50;0.70;;;;;;;3.75;96.13;97146.63;5035197;28;20548;-50
2021/12/02 04:50:55;;;;;;;1.50;0.67;;;;;;;3.77;96.02;97145.50;5029092;28;20206;-52
2021/12/02 04:53:22;;;;;;;2.27;0.60;;;;;;;3.77;95.04;97139.53;5019116;28;20192;-51
2021/12/02 04:55:48;;;;;;;1.93;0.33;;;;;;;3.75;96.17;97134.50;5026559;28;20196;-52
2021/12/02 04:58:15;;;;;;;4.53;0.67;;;;;;;3.78;96.89;97133.44;5017333;28;20198;-52
2021/12/02 05:00:42;;;;;;;1.30;0.50;;;;;;;3.79;96.68;97137.63;5033913;28;20258;-51
2021/12/02 05:03:09;;;;;;;2.50;0.67;;;;;;;3.79;96.20;97129.88;5034731;28;20184;-52
2021/12/02 05:05:36;;;;;;;1.00;0.50;;;;;;;3.84;95.80;97135.44;5033566;28;20654;-56
2021/12/02 05:08:06;;;;;;;1.83;0.60;;;;;;;3.79;96.23;97132.47;5017517;28;20181;-54
2021/12/02 05:10:32;;;;;;;1.00;0.60;;;;;;;3.81;97.11;97130.56;5006299;28;20212;-51
2021/12/02 05:12:59;;;;;;;3.50;0.73;;;;;;;3.82;97.49;97137.34;5034538;28;20613;-51
2021/12/02 05:15:26;;;;;;;3.27;0.80;;;;;;;3.87;98.27;97137.72;5034933;28;20254;-53
2021/12/02 05:17:53;;;;;;;1.57;0.77;;;;;;;3.93;96.94;97136.31;5034570;28;20186;-51
2021/12/02 05:20:21;;;;;;;1.40;0.80;;;;;;;3.92;97.48;97137.28;5033531;28;20193;-54
2021/12/02 05:22:47;;;;;;;1.60;1.40;;;;;;;3.94;97.41;97130.19;5018037;28;20196;-51
2021/12/02 05:25:16;;;;;;;2.00;1.00;;;;;;;3.91;97.91;97131.31;5021907;28;20447;-54
2021/12/02 05:27:42;;;;;;;1.83;0.80;;;;;;;3.94;97.49;97131.03;4994811;28;20284;-53
2021/12/02 05:30:11;;;;;;;2.33;0.90;;;;;;;3.94;97.76;97136.19;4993115;28;20232;-51
2021/12/02 05:32:38;;;;;;;1.33;0.93;;;;;;;3.97;97.82;97128.16;4994753;28;20570;-51
2021/12/02 05:35:05;;;;;;;14.63;11.13;;;;;;;4.03;98.20;97134.50;4994824;28;20178;-52
2021/12/02 05:37:32;;;;;;;31.77;19.23;;;;;;;3.97;97.75;97132.50;5012150;28;20619;-51
2021/12/02 05:39:59;;;;;;;2.73;2.40;;;;;;;3.93;97.24;97134.56;5022333;28;20205;-51
2021/12/02 05:42:27;;;;;;;2.40;1.67;;;;;;;3.89;97.55;97128.06;5030090;28;20607;-55
2021/12/02 05:44:54;;;;;;;1.13;0.97;;;;;;;3.89;97.01;97114.34;5033913;28;20181;-52
2021/12/02 05:47:21;;;;;;;73.03;31.53;;;;;;;3.89;97.33;97112.56;5033911;28;20199;-56
2021/12/02 05:49:48;;;;;;;165.77;75.57;;;;;;;3.88;96.83;97110.97;5032956;28;20219;-51
2021/12/02 05:52:15;;;;;;;4.77;4.07;;;;;;;3.88;97.03;97121.28;5019280;28;20180;-51
2021/12/02 05:54:41;;;;;;;172.67;130.20;;;;;;;3.95;97.59;97126.66;5025216;28;20600;-52
2021/12/02 05:57:08;;;;;;;27.27;23.80;;;;;;;3.93;98.58;97113.91;5029063;28;20192;-51
2021/12/02 05:59:36;;;;;;;5.17;3.60;;;;;;;3.95;98.83;97121.50;5033015;28;20192;-52
2021/12/02 06:02:06;;;;;;;2.80;1.80;;;;;;;3.95;99.67;97121.50;5033444;28;20207;-53
2021/12/02 06:04:33;;;;;;;4.13;2.00;;;;;;;3.97;100.00;97119.56;5015863;28;20243;-56
2021/12/02 06:07:00;;;;;;;2.17;1.80;;;;;;;3.98;99.41;97116.03;5022644;28;20195;-52
2021/12/02 06:09:27;;;;;;;2.80;1.20;;;;;;;4.04;97.53;97117.25;5008078;28;20226;-51
2021/12/02 06:11:54;;;;;;;2.60;1.40;;;;;;;4.03;97.96;97108.66;5026281;28;20192;-52
2021/12/02 06:14:20;;;;;;;3.13;1.63;;;;;;;4.04;98.42;97112.06;5033357;28;20188;-51
2021/12/02 06:16:48;;;;;;;2.37;1.43;;;;;;;4.02;96.93;97109.63;5033474;28;20188;-51
2021/12/02 06:19:15;;;;;;;4.20;1.40;;;;;;;4.03;97.46;97103.50;5033681;28;20202;-54
2021/12/02 06:21:42;;;;;;;3.93;1.30;;;;;;;4.05;98.55;97111.13;5023475;28;20184;-52
2021/12/02 06:24:09;;;;;;;4.00;1.60;;;;;;;4.06;97.65;97112.75;5024142;28;20242;-52
2021/12/02 06:26:37;;;;;;;5.10;1.40;;;;;;;4.10;95.92;97117.44;5024900;28;20211;-51
2021/12/02 06:29:04;;;;;;;3.97;2.03;;;;;;;4.11;96.53;97105.38;5033022;28;20191;-51
2021/12/02 06:31:31;;;;;;;3.83;1.40;;;;;;;4.08;96.65;97105.66;5032279;28;20195;-55
2021/12/02 06:33:59;;;;;;;2.73;1.33;;;;;;;4.07;96.69;97104.84;5033018;28;20191;-51
2021/12/02 06:36:26;;;;;;;2.83;1.03;;;;;;;4.09;96.67;97105.50;5024207;28;20605;-55
2021/12/02 06:38:52;;;;;;;4.13;1.00;;;;;;;4.13;97.12;97104.25;5023337;28;20191;-57
2021/12/02 06:41:19;;;;;;;4.77;1.53;;;;;;;4.11;95.76;97106.16;5023752;28;20235;-51
2021/12/02 06:43:46;;;;;;;3.23;1.27;;;;;;;4.13;96.34;97106.84;5032867;28;20652;-55
2021/12/02 06:46:13;;;;;;;2.83;1.30;;;;;;;4.13;96.16;97103.44;5015180;28;20200;-51
2021/12/02 06:48:40;;;;;;;2.97;1.97;;;;;;;4.09;96.26;97102.91;5032757;28;20192;-53
2021/12/02 06:51:10;;;;;;;2.00;1.30;;;;;;;4.10;95.56;97112.28;5025848;28;20221;-55
2021/12/02 06:53:37;;;;;;;9.57;5.20;;;;;;;4.11;98.02;97119.06;5021956;28;20200;-55
2021/12/02 06:56:04;;;;;;;14.43;7.97;;;;;;;4.13;96.00;97118.94;5024483;28;20212;-54
2021/12/02 06:58:31;;;;;;;9.50;5.77;;;;;;;4.16;96.70;97113.50;5032512;28;20191;-54
2021/12/02 07:00:58;;;;;;;4.60;2.73;;;;;;;4.21;95.13;97115.63;5031867;28;20210;-52
2021/12/02 07:03:25;;;;;;;44.73;25.63;;;;;;;4.17;95.51;97127.19;5032435;28;20188;-52
2021/12/02 07:05:51;;;;;;;2.93;1.50;;;;;;;4.13;95.80;97127.50;5029235;28;20259;-54
2021/12/02 07:08:21;;;;;;;3.07;1.50;;;;;;;4.19;93.60;97113.19;5019466;28;20535;-55
2021/12/02 07:10:47;;;;;;;19.70;11.70;;;;;;;4.16;95.24;97123.00;5019588;28;20245;-54
2021/12/02 07:13:14;;;;;;;9.37;4.93;;;;;;;4.12;96.85;97123.28;5012732;28;20189;-53
2021/12/02 07:15:44;;;;;;;29.63;13.43;;;;;;;4.06;97.13;97126.44;5012825;28;20193;-55
2021/12/02 07:18:14;;;;;;;11.27;5.27;;;;;;;4.05;95.84;97127.41;5012506;28;20195;-55
2021/12/02 07:20:41;;;;;;;14.77;7.33;;;;;;;4.09;96.62;97130.53;5011989;28;20612;-56
2021/12/02 07:23:08;;;;;;;8.77;3.63;;;;;;;4.12;95.57;97125.06;5012293;28;20197;-55
2021/12/02 07:25:40;;;;;;;11.93;8.27;;;;;;;4.10;95.60;97132.94;5013345;28;20189;-55
2021/12/02 07:28:08;;;;;;;12.90;7.93;;;;;;;4.14;94.49;97129.13;5032137;28;20215;-54
2021/12/02 07:30:35;;;;;;;16.83;15.13;;;;;;;4.19;94.40;97133.84;5031494;28;20211;-52
2021/12/02 07:33:04;;;;;;;6.63;3.63;;;;;;;4.27;95.23;97138.28;5032331;28;20180;-53
2021/12/02 07:35:31;;;;;;;6.60;3.63;;;;;;;4.29;93.77;97131.97;5032054;28;20191;-53
2021/12/02 07:38:00;;;;;;;1.57;1.30;;;;;;;4.29;95.15;97137.16;5018819;28;20195;-55
2021/12/02 07:40:29;;;;;;;3.80;1.77;;;;;;;4.37;96.06;97138.19;5027954;28;20692;-53
2021/12/02 07:42:58;;;;;;;2.50;1.07;;;;;;;4.31;94.78;97138.78;5011925;28;20657;-54
2021/12/02 07:45:31;;;;;;;1.83;1.27;;;;;;;4.34;93.99;97141.88;5011431;28;20557;-53
2021/12/02 07:48:00;;;;;;;2.07;1.00;;;;;;;4.33;93.19;97147.19;5011966;28;20650;-54
2021/12/02 07:50:27;;;;;;;2.00;1.17;;;;;;;4.25;93.24;97150.53;5010802;28;20220;-55
2021/12/02 07:52:56;;;;;;;2.73;1.20;;;;;;;4.24;95.36;97154.06;4997892;28;20192;-52
2021/12/02 07:55:25;;;;;;;4.60;1.07;;;;;;;4.20;94.38;97152.72;5006785;28;20239;-53
2021/12/02 07:57:53;;;;;;;4.47;1.90;;;;;;;4.10;95.09;97153.59;5011319;28;20613;-52
2021/12/02 08:00:25;;;;;;;5.27;2.70;;;;;;;4.11;93.08;97155.22;5010687;28;20233;-53
2021/12/02 08:02:53;;;;;;;5.17;2.77;;;;;;;4.11;95.25;97152.66;5015210;28;20196;-54
2021/12/02 08:05:22;;;;;;;2.10;1.40;;;;;;;4.11;95.25;97155.22;5017468;28;20554;-55
2021/12/02 08:07:50;;;;;;;3.37;1.20;;;;;;;4.13;94.98;97155.91;5009329;28;20263;-52
2021/12/02 08:10:18;;;;;;;3.80;1.37;;;;;;;4.13;94.51;97162.84;5003874;28;20213;-53
2021/12/02 08:12:50;;;;;;;3.50;1.70;;;;;;;4.04;94.09;97156.78;5020131;28;20664;-53
2021/12/02 08:15:19;;;;;;;3.07;1.40;;;;;;;4.09;96.13;97159.72;5011734;28;20173;-54
2021/12/02 08:17:48;;;;;;;1.97;1.53;;;;;;;4.05;93.98;97173.09;5011716;28;20271;-52
2021/12/02 08:20:16;;;;;;;3.93;1.50;;;;;;;4.10;94.70;97174.25;5011042;28;20216;-53
2021/12/02 08:22:43;;;;;;;8.87;3.10;;;;;;;4.17;93.57;97168.53;5011266;28;20539;-54
2021/12/02 08:25:10;;;;;;;15.83;6.83;;;;;;;4.11;95.35;97170.72;5004169;28;20197;-54
2021/12/02 08:27:37;;;;;;;7.97;3.77;;;;;;;4.08;93.92;97158.09;5015790;28;20196;-55
2021/12/02 08:30:06;;;;;;;2.37;1.53;;;;;;;4.14;93.15;97152.34;5013580;28;20212;-52
2021/12/02 08:32:35;;;;;;;4.43;1.50;;;;;;;4.16;92.62;97154.81;5011108;28;20191;-52
2021/12/02 08:35:03;;;;;;;3.13;1.33;;;;;;;4.18;93.30;97147.72;5010996;28;20653;-52
2021/12/02 08:37:32;;;;;;;5.43;1.60;;;;;;;4.17;92.39;97150.44;5011300;28;20268;-52
2021/12/02 08:40:00;;;;;;;3.20;2.33;;;;;;;4.16;92.46;97152.22;5008536;28;20543;-55
2021/12/02 08:42:28;;;;;;;4.87;2.50;;;;;;;4.18;92.31;97154.66;5009143;28;20203;-54
2021/12/02 08:44:54;;;;;;;3.00;1.90;;;;;;;4.22;92.95;97150.81;5011417;28;20197;-54
2021/12/02 08:47:23;;;;;;;2.77;1.83;;;;;;;4.13;92.86;97168.00;5011019;28;20192;-52
2021/12/02 08:49:52;;;;;;;2.90;1.70;;;;;;;4.08;93.64;97159.88;5010361;28;20404;-55
2021/12/02 08:52:22;;;;;;;2.93;1.67;;;;;;;4.13;93.89;97157.69;5010878;28;20724;-52
2021/12/02 08:54:49;;;;;;;2.10;1.30;;;;;;;4.17;93.84;97169.34;5009866;28;20276;-52
2021/12/02 08:57:17;;;;;;;3.93;1.87;;;;;;;4.17;94.20;97166.75;5004643;28;20199;-52
2021/12/02 08:59:44;;;;;;;5.63;2.07;;;;;;;4.17;95.43;97176.25;5012135;28;20230;-55
2021/12/02 09:02:11;;;;;;;16.40;8.50;;;;;;;4.21;95.29;97162.09;5012277;28;20185;-55
2021/12/02 09:04:38;;;;;;;7.10;2.57;;;;;;;4.26;94.69;97186.53;5010813;28;20212;-56
2021/12/02 09:07:05;;;;;;;5.10;2.27;;;;;;;4.28;93.10;97197.53;4995791;28;20185;-52
2021/12/02 09:09:33;;;;;;;4.13;1.87;;;;;;;4.11;94.50;97195.75;5014112;28;20246;-54
2021/12/02 09:12:00;;;;;;;6.10;2.60;;;;;;;3.98;95.84;97203.81;5014124;28;20620;-52
2021/12/02 09:14:27;;;;;;;2.83;2.10;;;;;;;3.95;96.89;97204.09;5008145;28;20276;-53
2021/12/02 09:16:54;;;;;;;3.20;1.73;;;;;;;3.76;97.21;97216.16;5017178;28;20190;-52
2021/12/02 09:19:21;;;;;;;4.83;3.50;;;;;;;3.69;97.68;97223.66;5018431;28;20228;-54
2021/12/02 09:21:48;;;;;;;3.63;2.13;;;;;;;3.62;96.60;97209.69;5013695;28;20736;-53
2021/12/02 09:24:18;;;;;;;9.43;6.30;;;;;;;3.60;97.72;97215.97;5008738;28;20184;-55
2021/12/02 09:26:47;;;;;;;5.03;2.30;;;;;;;3.60;96.59;97227.09;5014059;28;20225;-54
2021/12/02 09:29:16;;;;;;;5.03;2.20;;;;;;;3.58;99.75;97225.63;5009599;28;20217;-55
2021/12/02 09:31:43;;;;;;;4.53;2.00;;;;;;;3.57;97.95;97236.88;5013206;28;20215;-56
2021/12/02 09:34:10;;;;;;;5.20;2.00;;;;;;;3.58;100.00;97239.31;5016834;28;20211;-56
2021/12/02 09:36:37;;;;;;;2.27;1.47;;;;;;;3.52;98.97;97229.56;5015368;28;20193;-55
2021/12/02 09:39:05;;;;;;;3.33;1.87;;;;;;;3.53;98.84;97239.75;4990792;28;20669;-53
2021/12/02 09:41:32;;;;;;;7.97;2.17;;;;;;;3.42;99.17;97224.44;5013111;28;20208;-55
2021/12/02 09:44:01;;;;;;;2.93;1.70;;;;;;;3.45;99.71;97236.22;5013285;28;20215;-56
2021/12/02 09:46:28;;;;;;;3.60;1.70;;;;;;;3.48;100.00;97239.34;5007308;28;20228;-57
2021/12/02 09:48:56;;;;;;;6.03;2.70;;;;;;;3.47;100.00;97231.75;5013325;28;20221;-56
2021/12/02 09:51:25;;;;;;;4.63;2.50;;;;;;;3.53;100.00;97246.66;5016050;28;20208;-56
2021/12/02 09:53:54;;;;;;;4.03;2.33;;;;;;;3.57;99.75;97248.00;5013263;28;20616;-57
2021/12/02 09:56:24;;;;;;;5.57;1.60;;;;;;;3.48;100.00;97243.69;5012963;28;20200;-54
2021/12/02 09:58:54;;;;;;;3.50;1.60;;;;;;;3.46;99.98;97245.59;5013170;28;20263;-56
2021/12/02 10:01:24;;;;;;;4.73;1.70;;;;;;;3.45;99.01;97237.06;5010624;28;20201;-57
2021/12/02 10:03:58;;;;;;;4.07;2.07;;;;;;;3.43;100.00;97236.38;5007652;28;20276;-57
2021/12/02 10:06:29;;;;;;;4.70;1.73;;;;;;;3.31;97.86;97240.06;5016358;28;20202;-56
2021/12/02 10:09:04;;;;;;;4.93;2.53;;;;;;;3.43;97.63;97231.22;5009303;28;20271;-57
2021/12/02 10:11:34;;;;;;;2.03;1.50;;;;;;;3.51;97.89;97239.06;5012316;28;20269;-57
2021/12/02 10:14:17;;;;;;;3.03;1.27;;;;;;;3.56;97.89;97236.06;5012815;28;20185;-57
2021/12/02 10:16:47;;;;;;;2.20;1.30;;;;;;;3.62;97.66;97240.66;5011025;28;20193;-57
2021/12/02 10:19:17;;;;;;;3.80;1.70;;;;;;;3.59;96.57;97238.34;5003605;28;20208;-57
2021/12/02 10:21:50;;;;;;;3.40;1.70;;;;;;;3.64;97.10;97246.50;4999634;28;20192;-57
2021/12/02 10:24:20;;;;;;;4.13;1.77;;;;;;;3.59;96.48;97250.47;5024749;28;20188;-57
2021/12/02 10:26:50;;;;;;;4.03;1.83;;;;;;;3.56;96.57;97245.59;5030165;28;20191;-57
2021/12/02 10:29:19;;;;;;;2.60;1.30;;;;;;;3.52;97.35;97248.44;5013076;28;20209;-57
2021/12/02 10:32:03;;;;;;;3.43;1.67;;;;;;;3.63;96.33;97250.03;4994882;28;20264;-57
2021/12/02 10:34:30;;;;;;;2.97;1.80;;;;;;;3.63;97.32;97239.72;5006699;28;20217;-55
2021/12/02 10:37:09;;;;;;;3.53;1.70;;;;;;;3.67;97.18;97235.09;5011666;28;20224;-57
2021/12/02 10:39:36;;;;;;;4.40;1.87;;;;;;;3.69;96.38;97246.09;5022979;28;20205;-57
2021/12/02 10:42:05;;;;;;;2.83;1.63;;;;;;;3.71;96.11;97238.19;5032528;28;20657;-57
2021/12/02 10:44:34;;;;;;;2.90;1.73;;;;;;;3.60;93.07;97236.59;5026798;28;20184;-55
2021/12/02 10:47:06;;;;;;;4.17;2.60;;;;;;;3.68;94.83;97240.09;5009908;28;20272;-58
2021/12/02 10:49:36;;;;;;;3.60;2.53;;;;;;;3.71;95.13;97238.19;5012059;28;20287;-58
2021/12/02 10:52:06;;;;;;;4.23;2.60;;;;;;;3.70;94.54;97227.06;5004109;28;20204;-58
2021/12/02 10:54:35;;;;;;;4.97;2.43;;;;;;;3.81;94.70;97223.47;5016540;28;20544;-58
2021/12/02 10:57:08;;;;;;;4.50;2.10;;;;;;;3.75;93.91;97231.78;5012037;28;20199;-56
2021/12/02 10:59:42;;;;;;;3.00;2.13;;;;;;;3.80;93.11;97234.75;5011521;28;20245;-56
2021/12/02 11:02:21;;;;;;;5.40;3.03;;;;;;;3.86;95.57;97231.59;5011964;28;20188;-54
2021/12/02 11:04:50;;;;;;;4.93;2.50;;;;;;;3.89;93.97;97240.81;5010904;28;20197;-55
2021/12/02 11:07:23;;;;;;;6.57;3.30;;;;;;;3.95;95.58;97242.84;5006197;28;20196;-57
2021/12/02 11:09:51;;;;;;;6.67;4.17;;;;;;;3.92;95.98;97238.78;5013621;28;20303;-56
2021/12/02 11:12:21;;;;;;;16.17;7.30;;;;;;;3.95;95.17;97238.50;5016309;28;20208;-57
2021/12/02 11:15:06;;;;;;;10.13;4.53;;;;;;;3.97;95.62;97235.75;5013435;28;20270;-55
2021/12/02 11:17:40;;;;;;;23.40;7.77;;;;;;;3.96;96.43;97236.72;4993281;28;20283;-55
2021/12/02 11:20:10;;;;;;;16.70;12.40;;;;;;;3.95;94.87;97232.50;5009636;28;20231;-57
2021/12/02 11:22:37;;;;;;;6.33;3.47;;;;;;;4.07;96.55;97231.38;5010002;28;20244;-55
2021/12/02 11:25:08;;;;;;;9.20;4.87;;;;;;;4.04;94.35;97229.06;5007247;28;20195;-56
2021/12/02 11:27:39;;;;;;;4.20;3.03;;;;;;;4.00;94.09;97232.91;5018222;28;20204;-58
2021/12/02 11:30:09;;;;;;;14.83;6.40;;;;;;;3.92;95.61;97233.63;5012691;28;20205;-57
2021/12/02 11:32:41;;;;;;;10.27;4.67;;;;;;;3.81;95.48;97234.59;5011416;28;20744;-58
2021/12/02 11:35:12;;;;;;;10.27;3.53;;;;;;;3.79;96.00;97230.56;5011657;28;20177;-56
2021/12/02 11:37:42;;;;;;;7.93;3.23;;;;;;;3.83;95.47;97234.47;5007769;28;20200;-57
2021/12/02 11:40:11;;;;;;;5.27;2.63;;;;;;;3.89;95.60;97230.50;5003238;28;20266;-57
2021/12/02 11:42:39;;;;;;;5.50;3.00;;;;;;;3.97;94.09;97239.16;4995984;28;20291;-56
2021/12/02 11:45:09;;;;;;;7.23;3.20;;;;;;;3.98;94.29;97243.38;5016150;28;20200;-58
2021/12/02 11:47:36;;;;;;;7.47;3.03;;;;;;;3.95;95.45;97246.25;5011258;28;20606;-56
2021/12/02 11:50:08;;;;;;;7.33;3.50;;;;;;;3.80;94.91;97235.56;5010726;28;20299;-55
2021/12/02 11:52:37;;;;;;;10.50;5.30;;;;;;;3.93;95.93;97248.16;5011282;28;20216;-56
2021/12/02 11:55:08;;;;;;;8.27;4.17;;;;;;;3.84;95.95;97239.47;5010225;28;20181;-57